Time;durP1;ratioP1;P1;durP2;ratioP2;P2;SDS_P1;SDS_P2;PMS_P1;PMS_P2;Temp;Humidity;BMP_temperature;BMP_pressure;BME280_temperature;BME280_humidity;BME280_pressure;Samples;Min_cycle;Max_cycle;Signal;HPM_P1;HPM_P2
2022/03/13 00:00:25;;;;;;;13.80;4.15;;;;;;;;;;4980560;28;20093;-29
2022/03/13 00:02:53;;;;;;;11.52;3.60;;;;;;;;;;4980784;28;20041;-30
2022/03/13 00:05:20;;;;;;;16.52;3.88;;;;;;;;;;4979808;28;20031;-30
2022/03/13 00:07:48;;;;;;;15.00;3.90;;;;;;;;;;4979556;28;20116;-31
2022/03/13 00:10:18;;;;;;;15.27;3.45;;;;;;;;;;4981073;28;20068;-29
2022/03/13 00:12:46;;;;;;;13.48;3.47;;;;;;;;;;4980965;28;20381;-30
2022/03/13 00:15:15;;;;;;;14.27;3.65;;;;;;;;;;4978773;28;20068;-31
2022/03/13 00:17:42;;;;;;;16.20;3.53;;;;;;;;;;4979799;28;20134;-29
2022/03/13 00:20:11;;;;;;;17.90;4.10;;;;;;;;;;4981145;28;20031;-30
2022/03/13 00:22:38;;;;;;;19.60;3.50;;;;;;;;;;4979391;28;20045;-30
2022/03/13 00:25:08;;;;;;;18.45;4.28;;;;;;;;;;4980328;28;20060;-32
2022/03/13 00:27:35;;;;;;;14.55;3.88;;;;;;;;;;4979608;28;20042;-32
2022/03/13 00:30:04;;;;;;;18.10;3.92;;;;;;;;;;4966956;28;20030;-29
2022/03/13 00:32:31;;;;;;;14.57;3.20;;;;;;;;;;4983691;28;20095;-30
2022/03/13 00:34:59;;;;;;;14.23;3.47;;;;;;;;;;4984681;28;20140;-30
2022/03/13 00:37:26;;;;;;;15.27;3.40;;;;;;;;;;4984079;28;20034;-30
2022/03/13 00:39:55;;;;;;;8.57;3.75;;;;;;;;;;4982629;28;20109;-31
2022/03/13 00:42:22;;;;;;;17.20;3.78;;;;;;;;;;4976469;28;20046;-30
2022/03/13 00:44:49;;;;;;;18.88;3.70;;;;;;;;;;4980627;28;20049;-29
2022/03/13 00:47:18;;;;;;;14.93;3.53;;;;;;;;;;4981754;28;20042;-30
2022/03/13 00:49:46;;;;;;;13.98;3.72;;;;;;;;;;4980887;28;20030;-30
2022/03/13 00:52:13;;;;;;;16.15;4.03;;;;;;;;;;4975734;28;20602;-29
2022/03/13 00:54:40;;;;;;;16.02;4.07;;;;;;;;;;4971297;28;20102;-30
2022/03/13 00:57:07;;;;;;;11.73;4.20;;;;;;;;;;4954857;28;20218;-30
2022/03/13 00:59:34;;;;;;;16.92;4.50;;;;;;;;;;4971026;28;20030;-29
2022/03/13 01:02:01;;;;;;;18.75;6.43;;;;;;;;;;4969695;28;20030;-29
2022/03/13 01:04:28;;;;;;;24.90;8.45;;;;;;;;;;4971499;28;20123;-29
2022/03/13 01:06:55;;;;;;;44.35;12.15;;;;;;;;;;4971475;28;20058;-31
2022/03/13 01:09:22;;;;;;;51.58;17.10;;;;;;;;;;4971683;28;20130;-30
2022/03/13 01:11:50;;;;;;;66.40;21.70;;;;;;;;;;4970833;28;20062;-31
2022/03/13 01:14:17;;;;;;;71.65;23.88;;;;;;;;;;4971186;28;20370;-30
2022/03/13 01:16:44;;;;;;;60.45;22.90;;;;;;;;;;4971418;28;20034;-29
2022/03/13 01:19:11;;;;;;;60.10;21.92;;;;;;;;;;4970963;28;20023;-32
2022/03/13 01:21:39;;;;;;;56.30;20.85;;;;;;;;;;4971179;28;20061;-29
2022/03/13 01:24:06;;;;;;;49.22;18.02;;;;;;;;;;4971638;28;20059;-29
2022/03/13 01:26:36;;;;;;;42.55;17.73;;;;;;;;;;4971348;28;20061;-30
2022/03/13 01:29:05;;;;;;;48.40;18.45;;;;;;;;;;4981114;28;20030;-31
2022/03/13 01:31:33;;;;;;;45.65;18.70;;;;;;;;;;4994387;28;20072;-29
2022/03/13 01:34:01;;;;;;;51.85;18.85;;;;;;;;;;4994436;28;20026;-30
2022/03/13 01:36:28;;;;;;;55.97;18.02;;;;;;;;;;4994670;28;20034;-30
2022/03/13 01:38:57;;;;;;;47.97;17.88;;;;;;;;;;4994189;28;20109;-29
2022/03/13 01:41:24;;;;;;;49.38;17.98;;;;;;;;;;4987565;28;20054;-30
2022/03/13 01:43:52;;;;;;;41.03;16.55;;;;;;;;;;4994328;28;20042;-33
2022/03/13 01:46:20;;;;;;;45.80;16.75;;;;;;;;;;4994134;28;20092;-29
2022/03/13 01:48:56;;;;;;;42.03;16.70;;;;;;;;;;4994186;28;20074;-29
2022/03/13 01:51:23;;;;;;;47.55;17.08;;;;;;;;;;4985407;28;20049;-30
2022/03/13 01:53:54;;;;;;;51.00;16.17;;;;;;;;;;4982852;28;20513;-30
2022/03/13 01:56:22;;;;;;;42.20;16.40;;;;;;;;;;4966088;28;20044;-32
2022/03/13 01:58:50;;;;;;;46.92;15.98;;;;;;;;;;4980414;28;20492;-33
2022/03/13 02:01:18;;;;;;;40.42;15.20;;;;;;;;;;4965374;28;20049;-32
2022/03/13 02:03:46;;;;;;;41.67;14.73;;;;;;;;;;4978544;28;20027;-31
2022/03/13 02:06:13;;;;;;;34.50;14.55;;;;;;;;;;4960243;28;20034;-30
2022/03/13 02:08:40;;;;;;;41.92;14.88;;;;;;;;;;4977579;28;20038;-31
2022/03/13 02:11:08;;;;;;;35.20;14.07;;;;;;;;;;4960969;28;20027;-30
2022/03/13 02:13:36;;;;;;;38.78;14.48;;;;;;;;;;4977487;28;20050;-30
2022/03/13 02:16:03;;;;;;;34.35;13.68;;;;;;;;;;4978420;28;20030;-30
2022/03/13 02:18:30;;;;;;;36.25;13.52;;;;;;;;;;4977554;28;20034;-30
2022/03/13 02:20:57;;;;;;;37.17;13.40;;;;;;;;;;4978176;28;20081;-31
2022/03/13 02:23:31;;;;;;;31.13;12.45;;;;;;;;;;4977385;28;20031;-30
2022/03/13 02:25:59;;;;;;;38.13;13.63;;;;;;;;;;4987150;28;20058;-31
2022/03/13 02:28:28;;;;;;;36.30;13.43;;;;;;;;;;4981573;28;20116;-33
2022/03/13 02:30:58;;;;;;;27.33;11.20;;;;;;;;;;4983143;28;20425;-30
2022/03/13 02:33:25;;;;;;;29.83;11.38;;;;;;;;;;4985099;28;21345;-30
2022/03/13 02:35:54;;;;;;;33.85;12.23;;;;;;;;;;4977070;28;20496;-31
2022/03/13 02:38:21;;;;;;;28.27;11.43;;;;;;;;;;4975205;28;20031;-30
2022/03/13 02:40:48;;;;;;;31.88;11.60;;;;;;;;;;4982503;28;20105;-31
2022/03/13 02:43:15;;;;;;;27.85;11.68;;;;;;;;;;4994591;28;20047;-32
2022/03/13 02:45:42;;;;;;;36.30;10.85;;;;;;;;;;4993409;28;20080;-32
2022/03/13 02:48:10;;;;;;;24.85;10.48;;;;;;;;;;4994383;28;20129;-32
2022/03/13 02:50:37;;;;;;;32.05;10.38;;;;;;;;;;4969534;28;20420;-32
2022/03/13 02:53:04;;;;;;;29.83;10.18;;;;;;;;;;4990148;28;20077;-33
2022/03/13 02:55:32;;;;;;;27.40;9.50;;;;;;;;;;4962836;28;20381;-31
2022/03/13 02:57:58;;;;;;;27.30;10.55;;;;;;;;;;4974408;28;20073;-31
2022/03/13 03:00:44;;;;;;;25.98;9.48;;;;;;;;;;4978448;28;20122;-30
2022/03/13 03:03:13;;;;;;;24.42;10.02;;;;;;;;;;4974656;28;20541;-30
2022/03/13 03:05:40;;;;;;;24.48;8.82;;;;;;;;;;4976531;28;20026;-30
2022/03/13 03:08:07;;;;;;;25.38;9.43;;;;;;;;;;4994104;28;20026;-31
2022/03/13 03:10:35;;;;;;;32.15;9.23;;;;;;;;;;4993966;28;20073;-29
2022/03/13 03:13:02;;;;;;;26.88;9.25;;;;;;;;;;4993517;28;20122;-31
2022/03/13 03:15:29;;;;;;;22.52;8.90;;;;;;;;;;4993918;28;20109;-29
2022/03/13 03:17:56;;;;;;;23.02;9.68;;;;;;;;;;4994486;28;20037;-29
2022/03/13 03:20:23;;;;;;;23.60;8.60;;;;;;;;;;4993419;28;20550;-34
2022/03/13 03:22:54;;;;;;;20.48;8.38;;;;;;;;;;4994279;28;20030;-29
2022/03/13 03:25:23;;;;;;;21.35;8.40;;;;;;;;;;4993754;28;20042;-31
2022/03/13 03:27:50;;;;;;;25.30;8.60;;;;;;;;;;4993796;28;20039;-29
2022/03/13 03:30:25;;;;;;;19.92;7.78;;;;;;;;;;4993344;28;20374;-31
2022/03/13 03:32:52;;;;;;;18.65;7.82;;;;;;;;;;4994152;28;20485;-29
2022/03/13 03:35:20;;;;;;;17.83;7.43;;;;;;;;;;4993448;28;20053;-30
2022/03/13 03:37:47;;;;;;;22.90;8.43;;;;;;;;;;4993848;28;20034;-31
2022/03/13 03:40:14;;;;;;;18.00;8.00;;;;;;;;;;4993243;28;20150;-29
2022/03/13 03:42:42;;;;;;;15.82;7.28;;;;;;;;;;4993007;28;20031;-29
2022/03/13 03:45:09;;;;;;;20.45;7.43;;;;;;;;;;4993925;28;20049;-29
2022/03/13 03:47:36;;;;;;;19.35;7.13;;;;;;;;;;4993151;28;20026;-30
2022/03/13 03:50:04;;;;;;;17.50;7.50;;;;;;;;;;4993201;28;20117;-28
2022/03/13 03:52:31;;;;;;;22.52;8.00;;;;;;;;;;4993685;28;20505;-29
2022/03/13 03:54:58;;;;;;;20.30;8.15;;;;;;;;;;4993131;28;20038;-28
2022/03/13 03:57:24;;;;;;;17.00;7.18;;;;;;;;;;4976463;28;20034;-30
2022/03/13 03:59:51;;;;;;;20.60;7.32;;;;;;;;;;4992702;28;20061;-28
2022/03/13 04:02:18;;;;;;;17.00;7.32;;;;;;;;;;4993765;28;20044;-29
2022/03/13 04:04:46;;;;;;;16.95;7.38;;;;;;;;;;4993725;28;20158;-28
2022/03/13 04:07:13;;;;;;;15.30;7.00;;;;;;;;;;4993313;28;20038;-29
2022/03/13 04:09:41;;;;;;;14.45;6.70;;;;;;;;;;4992517;28;20484;-30
2022/03/13 04:12:08;;;;;;;13.30;6.45;;;;;;;;;;4983974;28;20030;-28
2022/03/13 04:14:35;;;;;;;16.92;6.88;;;;;;;;;;4981457;28;20031;-30
2022/03/13 04:17:03;;;;;;;14.38;6.57;;;;;;;;;;4982436;28;20105;-30
2022/03/13 04:19:30;;;;;;;14.23;6.68;;;;;;;;;;4981682;28;20440;-29
2022/03/13 04:21:57;;;;;;;16.67;6.53;;;;;;;;;;4983056;28;20503;-28
2022/03/13 04:24:24;;;;;;;14.75;7.18;;;;;;;;;;4982059;28;20078;-30
2022/03/13 04:26:52;;;;;;;14.90;6.07;;;;;;;;;;4981471;28;20037;-30
2022/03/13 04:29:23;;;;;;;14.40;6.45;;;;;;;;;;4983689;28;20042;-29
2022/03/13 04:31:52;;;;;;;15.43;6.53;;;;;;;;;;4981973;28;20128;-29
2022/03/13 04:34:19;;;;;;;18.75;7.28;;;;;;;;;;4981349;28;20089;-31
2022/03/13 04:36:47;;;;;;;14.07;6.22;;;;;;;;;;4983077;28;20485;-28
2022/03/13 04:39:14;;;;;;;17.02;6.95;;;;;;;;;;4982879;28;20728;-30
2022/03/13 04:41:41;;;;;;;15.32;6.18;;;;;;;;;;4981449;28;20027;-29
2022/03/13 04:44:10;;;;;;;12.85;6.10;;;;;;;;;;4982110;28;20038;-31
2022/03/13 04:46:36;;;;;;;17.00;6.88;;;;;;;;;;4982990;28;20088;-31
2022/03/13 04:49:03;;;;;;;15.27;6.60;;;;;;;;;;4981479;28;20417;-29
2022/03/13 04:51:31;;;;;;;15.90;5.95;;;;;;;;;;4982483;28;20431;-29
2022/03/13 04:53:58;;;;;;;14.10;5.97;;;;;;;;;;4982343;28;20058;-30
2022/03/13 04:56:25;;;;;;;13.20;5.80;;;;;;;;;;4981454;28;20030;-30
2022/03/13 04:58:52;;;;;;;14.80;6.32;;;;;;;;;;4982377;28;20481;-29
2022/03/13 05:01:20;;;;;;;15.60;6.47;;;;;;;;;;4964799;28;20031;-29
2022/03/13 05:03:47;;;;;;;12.52;5.80;;;;;;;;;;4981006;28;20046;-29
2022/03/13 05:06:14;;;;;;;13.43;5.68;;;;;;;;;;4980791;28;20030;-33
2022/03/13 05:08:41;;;;;;;13.07;5.53;;;;;;;;;;4983048;28;20061;-30
2022/03/13 05:11:09;;;;;;;14.90;6.18;;;;;;;;;;4964173;28;20023;-29
2022/03/13 05:13:36;;;;;;;10.52;5.10;;;;;;;;;;4978286;28;20034;-31
2022/03/13 05:16:04;;;;;;;11.05;5.18;;;;;;;;;;4982764;28;20050;-29
2022/03/13 05:18:34;;;;;;;11.93;5.53;;;;;;;;;;4980839;28;20050;-30
2022/03/13 05:21:01;;;;;;;14.75;5.78;;;;;;;;;;4981942;28;20038;-29
2022/03/13 05:23:28;;;;;;;12.18;5.18;;;;;;;;;;4982654;28;20085;-32
2022/03/13 05:25:55;;;;;;;11.00;5.45;;;;;;;;;;4963450;28;20037;-30
2022/03/13 05:28:22;;;;;;;11.40;4.82;;;;;;;;;;4982222;28;20062;-29
2022/03/13 05:30:49;;;;;;;9.32;5.00;;;;;;;;;;4982647;28;20489;-34
2022/03/13 05:33:16;;;;;;;10.25;4.22;;;;;;;;;;4980837;28;20511;-30
2022/03/13 05:35:43;;;;;;;11.10;5.30;;;;;;;;;;4981913;28;20476;-30
2022/03/13 05:38:10;;;;;;;10.68;5.35;;;;;;;;;;4982962;28;20038;-29
2022/03/13 05:40:37;;;;;;;11.60;4.90;;;;;;;;;;4981925;28;20429;-32
2022/03/13 05:43:04;;;;;;;8.82;4.97;;;;;;;;;;4980748;28;20077;-29
2022/03/13 05:45:32;;;;;;;10.88;4.80;;;;;;;;;;4972882;28;20460;-29
2022/03/13 05:48:00;;;;;;;10.18;4.93;;;;;;;;;;4973116;28;20023;-32
2022/03/13 05:50:28;;;;;;;9.50;3.92;;;;;;;;;;4972339;28;20046;-29
2022/03/13 05:52:58;;;;;;;11.77;4.40;;;;;;;;;;4972911;28;20046;-31
2022/03/13 05:55:26;;;;;;;10.45;4.93;;;;;;;;;;4972139;28;20070;-30
2022/03/13 05:58:02;;;;;;;9.90;4.88;;;;;;;;;;4972858;28;20397;-29
2022/03/13 06:00:32;;;;;;;10.52;4.70;;;;;;;;;;4972236;28;20485;-30
2022/03/13 06:03:00;;;;;;;12.13;4.25;;;;;;;;;;4972401;28;20035;-30
2022/03/13 06:05:27;;;;;;;9.85;4.65;;;;;;;;;;4973141;28;20042;-30
2022/03/13 06:07:55;;;;;;;9.73;4.32;;;;;;;;;;4972497;28;20035;-30
2022/03/13 06:10:22;;;;;;;6.50;3.80;;;;;;;;;;4972797;28;20039;-29
2022/03/13 06:12:49;;;;;;;13.15;4.68;;;;;;;;;;4972417;28;20031;-28
2022/03/13 06:15:17;;;;;;;10.20;4.47;;;;;;;;;;4973622;28;20083;-29
2022/03/13 06:17:45;;;;;;;7.68;4.07;;;;;;;;;;4975591;28;20035;-30
2022/03/13 06:20:13;;;;;;;8.40;4.18;;;;;;;;;;4976597;28;20039;-30
2022/03/13 06:22:42;;;;;;;11.27;4.55;;;;;;;;;;4975989;28;20393;-31
2022/03/13 06:25:10;;;;;;;10.23;4.10;;;;;;;;;;4976002;28;20031;-29
2022/03/13 06:27:37;;;;;;;8.55;3.92;;;;;;;;;;4976518;28;20481;-30
2022/03/13 06:30:13;;;;;;;9.07;3.92;;;;;;;;;;4975449;28;20098;-30
2022/03/13 06:32:40;;;;;;;8.35;4.20;;;;;;;;;;4976248;28;20094;-29
2022/03/13 06:35:08;;;;;;;6.60;3.95;;;;;;;;;;4975646;28;20532;-29
2022/03/13 06:37:34;;;;;;;9.45;4.13;;;;;;;;;;4975909;28;20027;-33
2022/03/13 06:40:02;;;;;;;9.52;3.72;;;;;;;;;;4976250;28;20041;-29
2022/03/13 06:42:29;;;;;;;10.25;3.70;;;;;;;;;;4975245;28;20031;-29
2022/03/13 06:44:56;;;;;;;9.38;3.72;;;;;;;;;;4976168;28;20067;-29
2022/03/13 06:47:23;;;;;;;7.38;3.75;;;;;;;;;;4975553;28;20031;-29
2022/03/13 06:49:50;;;;;;;9.23;3.45;;;;;;;;;;4976091;28;20046;-30
2022/03/13 06:52:17;;;;;;;7.97;3.63;;;;;;;;;;4974723;28;20071;-29
2022/03/13 06:54:44;;;;;;;8.98;4.10;;;;;;;;;;4976031;28;20454;-29
2022/03/13 06:57:14;;;;;;;6.13;3.30;;;;;;;;;;4975161;28;20093;-29
2022/03/13 06:59:44;;;;;;;5.78;3.17;;;;;;;;;;4975778;28;20445;-29
2022/03/13 07:02:11;;;;;;;7.85;3.20;;;;;;;;;;4974810;28;20486;-29
2022/03/13 07:07:29;;;;;;;6.28;3.67;;;;;;;;;;4953077;28;20461;-32
2022/03/13 07:09:57;;;;;;;5.05;3.05;;;;;;;;;;4955408;28;20038;-32
2022/03/13 07:12:25;;;;;;;8.27;3.90;;;;;;;;;;4955824;28;20039;-32
2022/03/13 07:14:55;;;;;;;6.85;3.15;;;;;;;;;;4955551;28;20043;-32
2022/03/13 07:17:22;;;;;;;6.22;3.05;;;;;;;;;;4955705;28;20114;-32
2022/03/13 07:19:49;;;;;;;7.32;3.42;;;;;;;;;;4955258;28;20291;-32
2022/03/13 07:22:17;;;;;;;6.15;3.38;;;;;;;;;;4955431;28;20114;-33
2022/03/13 07:24:46;;;;;;;6.13;3.40;;;;;;;;;;4955269;28;20566;-32
2022/03/13 07:27:16;;;;;;;5.88;2.88;;;;;;;;;;4953982;28;20043;-32
2022/03/13 07:29:43;;;;;;;5.82;2.65;;;;;;;;;;4955227;28;20074;-32
2022/03/13 07:32:11;;;;;;;5.78;3.00;;;;;;;;;;4955760;28;20065;-32
2022/03/13 07:34:37;;;;;;;6.50;3.08;;;;;;;;;;4955119;28;20039;-32
2022/03/13 07:37:05;;;;;;;5.80;2.92;;;;;;;;;;4955718;28;20047;-32
2022/03/13 07:39:32;;;;;;;5.57;3.00;;;;;;;;;;4955424;28;20481;-32
2022/03/13 07:41:59;;;;;;;5.68;2.78;;;;;;;;;;4955306;28;20034;-32
2022/03/13 07:44:25;;;;;;;5.13;3.15;;;;;;;;;;4955224;28;20035;-32
2022/03/13 07:46:52;;;;;;;5.20;2.67;;;;;;;;;;4954889;28;20039;-32
2022/03/13 07:49:19;;;;;;;4.95;2.55;;;;;;;;;;4955175;28;20023;-32
2022/03/13 07:51:47;;;;;;;5.00;3.13;;;;;;;;;;4954931;28;20045;-32
2022/03/13 07:54:14;;;;;;;4.80;2.60;;;;;;;;;;4955071;28;20042;-31
2022/03/13 07:56:42;;;;;;;7.38;2.90;;;;;;;;;;4955078;28;20058;-32
2022/03/13 07:59:09;;;;;;;4.82;2.40;;;;;;;;;;4955020;28;20031;-32
2022/03/13 08:01:36;;;;;;;4.82;2.88;;;;;;;;;;4954909;28;20516;-31
2022/03/13 08:04:05;;;;;;;5.57;2.53;;;;;;;;;;4954564;28;20059;-32
2022/03/13 08:06:36;;;;;;;4.57;2.30;;;;;;;;;;4953649;28;20146;-32
2022/03/13 08:09:04;;;;;;;4.47;2.20;;;;;;;;;;4954633;28;20039;-32
2022/03/13 08:11:34;;;;;;;3.58;2.20;;;;;;;;;;4954298;28;20047;-32
2022/03/13 08:14:02;;;;;;;3.95;1.92;;;;;;;;;;4954405;28;20497;-32
2022/03/13 08:16:29;;;;;;;5.22;2.25;;;;;;;;;;4952926;28;20035;-32
2022/03/13 08:18:56;;;;;;;4.05;2.33;;;;;;;;;;4954169;28;20047;-32
2022/03/13 08:21:23;;;;;;;4.22;2.50;;;;;;;;;;4954348;28;20050;-31
2022/03/13 08:23:50;;;;;;;4.22;2.58;;;;;;;;;;4954310;28;20389;-32
2022/03/13 08:26:17;;;;;;;4.22;2.10;;;;;;;;;;4953971;28;20106;-32
2022/03/13 08:28:44;;;;;;;5.13;2.33;;;;;;;;;;4954722;28;20039;-31
2022/03/13 08:31:12;;;;;;;4.40;2.10;;;;;;;;;;4954022;28;20035;-32
2022/03/13 08:33:42;;;;;;;5.82;2.25;;;;;;;;;;4954405;28;20067;-32
2022/03/13 08:36:08;;;;;;;3.50;2.20;;;;;;;;;;4953788;28;20046;-32
2022/03/13 08:38:35;;;;;;;3.95;2.30;;;;;;;;;;4953335;28;20019;-32
2022/03/13 08:41:02;;;;;;;4.80;2.28;;;;;;;;;;4953972;28;20147;-32
2022/03/13 08:43:29;;;;;;;6.15;2.40;;;;;;;;;;4953708;28;20031;-32
2022/03/13 08:45:56;;;;;;;3.28;2.03;;;;;;;;;;4954348;28;20035;-32
2022/03/13 08:48:23;;;;;;;3.83;2.22;;;;;;;;;;4953417;28;20039;-31
2022/03/13 08:50:50;;;;;;;3.22;1.85;;;;;;;;;;4953663;28;20027;-32
2022/03/13 08:53:17;;;;;;;2.78;1.80;;;;;;;;;;4954266;28;20370;-32
2022/03/13 08:55:44;;;;;;;4.75;2.17;;;;;;;;;;4953755;28;20071;-32
2022/03/13 08:58:11;;;;;;;5.50;2.25;;;;;;;;;;4953526;28;20031;-32
2022/03/13 09:00:38;;;;;;;4.20;2.25;;;;;;;;;;4953461;28;20023;-32
2022/03/13 09:03:05;;;;;;;3.63;2.00;;;;;;;;;;4954006;28;20063;-32
2022/03/13 09:05:32;;;;;;;3.88;1.90;;;;;;;;;;4952963;28;20086;-32
2022/03/13 09:07:59;;;;;;;4.65;2.10;;;;;;;;;;4953584;28;20023;-32
2022/03/13 09:10:26;;;;;;;2.95;1.90;;;;;;;;;;4953583;28;20102;-32
2022/03/13 09:12:53;;;;;;;3.47;1.90;;;;;;;;;;4953407;28;20512;-32
2022/03/13 09:15:20;;;;;;;3.33;2.00;;;;;;;;;;4953099;28;20035;-32
2022/03/13 09:17:53;;;;;;;3.20;1.92;;;;;;;;;;4953273;28;20026;-32
2022/03/13 09:20:21;;;;;;;3.55;2.05;;;;;;;;;;4953162;28;20548;-32
2022/03/13 09:22:48;;;;;;;3.88;1.65;;;;;;;;;;4953298;28;20086;-32
2022/03/13 09:25:15;;;;;;;3.20;1.90;;;;;;;;;;4953451;28;20054;-31
2022/03/13 09:27:42;;;;;;;4.70;2.58;;;;;;;;;;4953068;28;20406;-32
2022/03/13 09:30:09;;;;;;;4.50;2.10;;;;;;;;;;4953843;28;20483;-31
2022/03/13 09:32:36;;;;;;;3.30;1.60;;;;;;;;;;4953281;28;20032;-31
2022/03/13 09:35:04;;;;;;;5.15;1.50;;;;;;;;;;4953239;28;20039;-31
2022/03/13 09:37:32;;;;;;;2.58;1.50;;;;;;;;;;4953083;28;20123;-31
2022/03/13 09:39:58;;;;;;;4.63;1.85;;;;;;;;;;4953575;28;20023;-32
2022/03/13 09:42:25;;;;;;;4.00;1.77;;;;;;;;;;4953818;28;20035;-32
2022/03/13 09:44:52;;;;;;;2.60;1.63;;;;;;;;;;4953258;28;20050;-31
2022/03/13 09:47:20;;;;;;;2.47;1.42;;;;;;;;;;4952751;28;20565;-31
2022/03/13 09:49:48;;;;;;;3.03;1.63;;;;;;;;;;4955411;28;20023;-31
2022/03/13 09:52:15;;;;;;;3.03;1.77;;;;;;;;;;4957343;28;20039;-31
2022/03/13 09:54:42;;;;;;;3.05;1.65;;;;;;;;;;4955536;28;20039;-31
2022/03/13 09:57:09;;;;;;;2.65;1.50;;;;;;;;;;4957530;28;20429;-31
2022/03/13 09:59:36;;;;;;;2.72;1.63;;;;;;;;;;4956462;28;20030;-32
2022/03/13 10:02:06;;;;;;;4.68;1.70;;;;;;;;;;4957420;28;20031;-32
2022/03/13 10:04:34;;;;;;;3.53;1.33;;;;;;;;;;4957118;28;20120;-32
2022/03/13 10:07:01;;;;;;;3.72;1.70;;;;;;;;;;4956489;28;20051;-31
2022/03/13 10:09:29;;;;;;;4.28;1.70;;;;;;;;;;4957289;28;20031;-32
2022/03/13 10:12:16;;;;;;;4.82;1.65;;;;;;;;;;4956348;28;20035;-32
2022/03/13 10:15:03;;;;;;;2.95;1.50;;;;;;;;;;4956561;28;20036;-32
2022/03/13 10:17:31;;;;;;;5.80;1.80;;;;;;;;;;4956739;28;20043;-32
2022/03/13 10:20:12;;;;;;;4.93;1.70;;;;;;;;;;4956510;28;20027;-32
2022/03/13 10:22:39;;;;;;;2.20;1.30;;;;;;;;;;4956029;28;20094;-32
2022/03/13 10:25:06;;;;;;;2.95;1.42;;;;;;;;;;4956734;28;20038;-32
2022/03/13 10:27:33;;;;;;;4.72;1.92;;;;;;;;;;4956464;28;20114;-32
2022/03/13 10:30:07;;;;;;;3.00;1.48;;;;;;;;;;4956555;28;20638;-32
2022/03/13 10:32:34;;;;;;;3.38;1.50;;;;;;;;;;4956732;28;20039;-32
2022/03/13 10:35:01;;;;;;;3.35;1.50;;;;;;;;;;4956144;28;20038;-32
2022/03/13 10:37:35;;;;;;;3.60;1.50;;;;;;;;;;4956821;28;20490;-32
2022/03/13 10:40:28;;;;;;;3.10;1.40;;;;;;;;;;4956194;28;20114;-32
2022/03/13 10:42:58;;;;;;;2.72;1.50;;;;;;;;;;4954111;28;20043;-32
2022/03/13 10:45:39;;;;;;;2.47;1.30;;;;;;;;;;4955910;28;20043;-32
2022/03/13 10:48:28;;;;;;;3.33;1.42;;;;;;;;;;4956117;28;20482;-32
2022/03/13 10:50:57;;;;;;;3.38;1.52;;;;;;;;;;4955647;28;20090;-32
2022/03/13 10:53:24;;;;;;;3.78;1.38;;;;;;;;;;4956464;28;20098;-32
2022/03/13 10:56:01;;;;;;;2.05;1.30;;;;;;;;;;4955514;28;20042;-32
2022/03/13 10:58:31;;;;;;;3.83;1.38;;;;;;;;;;4955510;28;20039;-32
2022/03/13 11:01:05;;;;;;;2.20;1.10;;;;;;;;;;4955775;28;20027;-32
2022/03/13 11:03:34;;;;;;;3.03;1.35;;;;;;;;;;4956165;28;20054;-32
2022/03/13 11:06:01;;;;;;;3.33;1.35;;;;;;;;;;4955292;28;20066;-32
2022/03/13 11:08:28;;;;;;;3.10;1.20;;;;;;;;;;4955130;28;20027;-36
2022/03/13 11:10:57;;;;;;;2.60;1.35;;;;;;;;;;4956062;28;20032;-32
2022/03/13 11:13:27;;;;;;;2.53;1.00;;;;;;;;;;4955973;28;20054;-32
2022/03/13 11:15:57;;;;;;;4.47;1.58;;;;;;;;;;4955233;28;20047;-32
2022/03/13 11:18:25;;;;;;;2.97;1.25;;;;;;;;;;4956033;28;20402;-32
2022/03/13 11:20:52;;;;;;;2.95;1.20;;;;;;;;;;4954924;28;20110;-32
2022/03/13 11:23:19;;;;;;;4.50;1.50;;;;;;;;;;4955671;28;20027;-32
2022/03/13 11:25:54;;;;;;;3.30;1.60;;;;;;;;;;4955458;28;20035;-32
2022/03/13 11:28:22;;;;;;;5.22;1.50;;;;;;;;;;4954766;28;20113;-32
2022/03/13 11:30:50;;;;;;;4.25;1.80;;;;;;;;;;4955892;28;20375;-32
2022/03/13 11:33:41;;;;;;;4.65;1.60;;;;;;;;;;4955271;28;20035;-32
2022/03/13 11:36:31;;;;;;;3.85;1.50;;;;;;;;;;4955193;28;20050;-32
2022/03/13 11:39:03;;;;;;;3.30;1.50;;;;;;;;;;4947588;28;20043;-32
2022/03/13 11:41:37;;;;;;;2.70;1.25;;;;;;;;;;4954686;28;20493;-32
2022/03/13 11:44:33;;;;;;;4.15;1.65;;;;;;;;;;4955633;28;20031;-32
2022/03/13 11:47:01;;;;;;;6.85;1.70;;;;;;;;;;4954677;28;20042;-32
2022/03/13 11:49:31;;;;;;;5.45;2.03;;;;;;;;;;4955094;28;20043;-32
2022/03/13 11:52:13;;;;;;;2.92;1.40;;;;;;;;;;4954514;28;20039;-32
2022/03/13 11:54:52;;;;;;;3.83;1.55;;;;;;;;;;4954685;28;20031;-32
2022/03/13 11:57:20;;;;;;;3.20;1.20;;;;;;;;;;4954821;28;20035;-32
2022/03/13 11:59:50;;;;;;;5.03;1.50;;;;;;;;;;4955084;28;20481;-32
2022/03/13 12:02:35;;;;;;;4.28;1.58;;;;;;;;;;4954373;28;20400;-32
2022/03/13 12:05:20;;;;;;;5.25;1.52;;;;;;;;;;4953925;28;20078;-32
2022/03/13 12:07:53;;;;;;;3.97;1.58;;;;;;;;;;4954609;28;20026;-32
2022/03/13 12:10:37;;;;;;;4.03;1.85;;;;;;;;;;4937869;28;20501;-32
2022/03/13 12:13:07;;;;;;;3.25;1.40;;;;;;;;;;4953554;28;20039;-32
2022/03/13 12:15:35;;;;;;;4.43;1.52;;;;;;;;;;4953856;28;20043;-32
2022/03/13 12:18:27;;;;;;;5.15;1.45;;;;;;;;;;4954707;28;20042;-32
2022/03/13 12:20:55;;;;;;;6.38;1.52;;;;;;;;;;4953971;28;20114;-32
2022/03/13 12:23:41;;;;;;;4.05;1.38;;;;;;;;;;4954935;28;20031;-32
2022/03/13 12:26:14;;;;;;;5.97;2.05;;;;;;;;;;4954806;28;20046;-31
2022/03/13 12:28:41;;;;;;;4.43;1.63;;;;;;;;;;4954119;28;20502;-31
2022/03/13 12:31:08;;;;;;;4.45;1.50;;;;;;;;;;4954840;28;20019;-31
2022/03/13 12:33:39;;;;;;;7.32;1.58;;;;;;;;;;4953749;28;20512;-33
2022/03/13 12:36:06;;;;;;;7.75;1.83;;;;;;;;;;4954402;28;20043;-33
2022/03/13 12:38:34;;;;;;;5.78;1.50;;;;;;;;;;4955773;28;20098;-32
2022/03/13 12:41:03;;;;;;;3.40;1.40;;;;;;;;;;4956001;28;20031;-31
2022/03/13 12:43:49;;;;;;;4.35;1.40;;;;;;;;;;4954323;28;20043;-32
2022/03/13 12:46:17;;;;;;;5.43;1.70;;;;;;;;;;4952941;28;20494;-32
2022/03/13 12:48:55;;;;;;;5.10;1.73;;;;;;;;;;4953046;28;20385;-33
2022/03/13 12:51:43;;;;;;;4.57;1.63;;;;;;;;;;4954028;28;20501;-32
2022/03/13 12:54:11;;;;;;;3.28;1.50;;;;;;;;;;4953345;28;20039;-32
2022/03/13 12:56:58;;;;;;;5.07;1.60;;;;;;;;;;4953749;28;20031;-32
2022/03/13 12:59:26;;;;;;;4.78;1.45;;;;;;;;;;4953946;28;20046;-33
2022/03/13 13:02:03;;;;;;;8.38;2.00;;;;;;;;;;4954319;29;20027;-32
2022/03/13 13:04:31;;;;;;;5.22;1.48;;;;;;;;;;4953668;29;20046;-32
2022/03/13 13:06:58;;;;;;;5.03;1.40;;;;;;;;;;4954127;28;20051;-32
2022/03/13 13:09:32;;;;;;;5.00;1.20;;;;;;;;;;4953482;28;20023;-32
2022/03/13 13:11:59;;;;;;;4.07;1.30;;;;;;;;;;4953931;28;20031;-32
2022/03/13 13:14:27;;;;;;;3.03;1.48;;;;;;;;;;4953527;28;20041;-32
2022/03/13 13:16:56;;;;;;;7.43;1.73;;;;;;;;;;4953875;28;20032;-32
2022/03/13 13:19:24;;;;;;;6.38;2.10;;;;;;;;;;4953521;28;20032;-32
2022/03/13 13:21:58;;;;;;;9.15;2.05;;;;;;;;;;4954345;28;20378;-32
2022/03/13 13:24:28;;;;;;;5.57;1.60;;;;;;;;;;4952724;28;20035;-32
2022/03/13 13:26:55;;;;;;;5.43;1.70;;;;;;;;;;4953802;28;20046;-32
2022/03/13 13:29:54;;;;;;;4.45;1.60;;;;;;;;;;4953923;28;20065;-32
2022/03/13 13:32:32;;;;;;;4.72;1.70;;;;;;;;;;4911148;28;20066;-32
2022/03/13 13:35:06;;;;;;;5.50;1.88;;;;;;;;;;4953412;28;20517;-32
2022/03/13 13:37:33;;;;;;;3.85;1.92;;;;;;;;;;4950805;28;20166;-32
2022/03/13 13:40:03;;;;;;;6.28;1.60;;;;;;;;;;4953853;28;20504;-32
2022/03/13 13:42:32;;;;;;;5.80;1.90;;;;;;;;;;4953173;28;20034;-32
2022/03/13 13:45:02;;;;;;;11.82;1.75;;;;;;;;;;4953109;28;20046;-32
2022/03/13 13:47:29;;;;;;;7.80;2.15;;;;;;;;;;4953027;28;20426;-32
2022/03/13 13:49:56;;;;;;;5.55;1.80;;;;;;;;;;4953789;28;20024;-32
2022/03/13 13:52:29;;;;;;;8.50;1.80;;;;;;;;;;4953207;28;20035;-32
2022/03/13 13:54:56;;;;;;;4.82;1.80;;;;;;;;;;4953325;28;20039;-32
2022/03/13 13:57:24;;;;;;;7.95;1.70;;;;;;;;;;4953744;28;20497;-32
2022/03/13 13:59:51;;;;;;;5.93;1.83;;;;;;;;;;4953660;28;20122;-32
2022/03/13 14:02:20;;;;;;;6.57;1.75;;;;;;;;;;4952780;28;20055;-32
2022/03/13 14:04:54;;;;;;;5.68;1.73;;;;;;;;;;4953149;28;20093;-32
2022/03/13 14:07:21;;;;;;;4.35;1.77;;;;;;;;;;4952997;29;20039;-32
2022/03/13 14:09:48;;;;;;;6.25;1.80;;;;;;;;;;4935966;29;20062;-33
2022/03/13 14:12:16;;;;;;;6.38;1.70;;;;;;;;;;4952522;28;20024;-33
2022/03/13 14:14:43;;;;;;;6.63;2.20;;;;;;;;;;4952525;28;20047;-32
2022/03/13 14:17:10;;;;;;;5.00;1.60;;;;;;;;;;4953324;28;20059;-33
2022/03/13 14:19:38;;;;;;;6.22;1.63;;;;;;;;;;4952811;28;20019;-33
2022/03/13 14:22:08;;;;;;;5.45;1.80;;;;;;;;;;4952754;28;20042;-33
2022/03/13 14:24:36;;;;;;;8.30;1.73;;;;;;;;;;4952160;28;20027;-33
2022/03/13 14:27:09;;;;;;;8.95;2.25;;;;;;;;;;4950364;28;20044;-32
2022/03/13 14:29:37;;;;;;;8.23;1.88;;;;;;;;;;4952666;28;20039;-32
2022/03/13 14:32:04;;;;;;;7.32;1.63;;;;;;;;;;4952678;29;20028;-33
2022/03/13 14:34:31;;;;;;;13.07;1.90;;;;;;;;;;4953098;28;20035;-32
2022/03/13 14:37:01;;;;;;;8.30;1.67;;;;;;;;;;4955152;28;20650;-32
2022/03/13 14:39:29;;;;;;;7.32;1.60;;;;;;;;;;4956655;29;20117;-32
2022/03/13 14:41:56;;;;;;;7.97;2.00;;;;;;;;;;4955459;28;20023;-32
2022/03/13 14:44:23;;;;;;;6.00;1.45;;;;;;;;;;4956203;29;20027;-32
2022/03/13 14:46:50;;;;;;;7.82;2.15;;;;;;;;;;4956520;28;20490;-31
2022/03/13 14:49:17;;;;;;;4.60;1.75;;;;;;;;;;4956366;28;20027;-32